createdAt,value
2017-05-27T00:00:03.055Z,1001.69
2017-05-27T00:01:13.420Z,1001.69
2017-05-27T00:02:23.456Z,1001.69
2017-05-27T00:03:33.185Z,1001.72
2017-05-27T00:04:43.223Z,1001.69
2017-05-27T00:05:53.250Z,1001.7
2017-05-27T00:07:03.294Z,1001.7
2017-05-27T00:08:13.338Z,1001.68
2017-05-27T00:09:23.708Z,1001.66
2017-05-27T00:10:33.756Z,1001.67
2017-05-27T00:11:44.156Z,1001.67
2017-05-27T00:12:54.204Z,1001.7
2017-05-27T00:14:04.566Z,1001.73
2017-05-27T00:15:14.287Z,1001.74
2017-05-27T00:16:24.017Z,1001.75
2017-05-27T00:17:34.356Z,1001.78
2017-05-27T00:18:44.703Z,1001.74
2017-05-27T00:19:54.815Z,1001.74
2017-05-27T00:21:05.173Z,1001.69
2017-05-27T00:22:15.211Z,1001.68
2017-05-27T00:23:25.241Z,1001.71
2017-05-27T00:24:35.271Z,1001.69
2017-05-27T00:25:45.628Z,1001.73
2017-05-27T00:26:55.998Z,1001.75
2017-05-27T00:28:06.345Z,1001.74
2017-05-27T00:29:16.710Z,1001.74
2017-05-27T00:30:26.754Z,1001.77
2017-05-27T00:31:37.106Z,1001.77
2017-05-27T00:32:47.162Z,1001.75
2017-05-27T00:33:57.521Z,1001.78
2017-05-27T00:35:07.868Z,1001.74
2017-05-27T00:36:17.914Z,1001.74
2017-05-27T00:37:28.262Z,1001.76
2017-05-27T00:38:38.611Z,1001.76
2017-05-27T00:39:48.953Z,1001.73
2017-05-27T00:40:59.296Z,1001.76
2017-05-27T00:42:09.634Z,1001.75
2017-05-27T00:43:19.889Z,1001.76
2017-05-27T00:44:30.242Z,1001.79
2017-05-27T00:45:40.286Z,1001.8
2017-05-27T00:46:50.685Z,1001.79
2017-05-27T00:48:00.769Z,1001.82
2017-05-27T00:49:10.803Z,1001.83
2017-05-27T00:50:21.147Z,1001.85
2017-05-27T00:51:31.497Z,1001.83
2017-05-27T00:52:41.897Z,1001.85
2017-05-27T00:53:51.939Z,1001.83
2017-05-27T00:55:02.304Z,1001.86
2017-05-27T00:56:12.032Z,1001.88
2017-05-27T00:57:22.407Z,1001.87
2017-05-27T00:58:32.812Z,1001.89
2017-05-27T00:59:43.164Z,1001.89
2017-05-27T01:00:53.531Z,1001.89
2017-05-27T01:02:03.568Z,1001.91
2017-05-27T01:03:13.913Z,1001.87
2017-05-27T01:04:23.641Z,1001.88
2017-05-27T01:05:33.674Z,1001.87
2017-05-27T01:06:44.030Z,1001.83
2017-05-27T01:07:54.379Z,1001.8
2017-05-27T01:09:04.407Z,1001.87
2017-05-27T01:10:14.166Z,1001.82
2017-05-27T01:11:24.516Z,1001.83
2017-05-27T01:12:34.868Z,1001.84
2017-05-27T01:13:45.228Z,1001.81
2017-05-27T01:14:55.578Z,1001.79
2017-05-27T01:16:05.658Z,1001.79
2017-05-27T01:17:15.686Z,1001.75
2017-05-27T01:18:26.041Z,1001.76
2017-05-27T01:19:36.397Z,1001.78
2017-05-27T01:20:46.782Z,1001.75
2017-05-27T01:21:57.121Z,1001.75
2017-05-27T01:23:07.464Z,1001.78
2017-05-27T01:24:17.814Z,1001.82
2017-05-27T01:25:28.176Z,1001.81
2017-05-27T01:26:38.511Z,1001.83
2017-05-27T01:27:48.906Z,1001.84
2017-05-27T01:28:59.269Z,1001.86
2017-05-27T01:30:09.618Z,1001.83
2017-05-27T01:31:19.649Z,1001.86
2017-05-27T01:32:30.026Z,1001.85
2017-05-27T01:33:40.435Z,1001.89
2017-05-27T01:34:50.790Z,1001.87
2017-05-27T01:36:00.822Z,1001.81
2017-05-27T01:37:11.191Z,1001.84
2017-05-27T01:38:21.546Z,1001.84
2017-05-27T01:39:31.634Z,1001.84
2017-05-27T01:40:41.990Z,1001.83
2017-05-27T01:41:52.360Z,1001.81
2017-05-27T01:43:02.706Z,1001.81
2017-05-27T01:44:12.753Z,1001.86
2017-05-27T01:45:23.119Z,1001.86
2017-05-27T01:46:33.471Z,1001.82
2017-05-27T01:47:42.906Z,1001.86
2017-05-27T01:48:52.653Z,1001.87
2017-05-27T01:50:03.001Z,1001.87
2017-05-27T01:51:13.101Z,1001.85
2017-05-27T01:52:23.129Z,1001.86
2017-05-27T01:53:33.480Z,1001.85
2017-05-27T01:54:43.830Z,1001.87
2017-05-27T01:55:54.185Z,1001.95
2017-05-27T01:57:04.783Z,1001.89
2017-05-27T01:58:15.137Z,1001.91
2017-05-27T01:59:25.188Z,1001.92
2017-05-27T02:00:35.539Z,1001.87
2017-05-27T02:01:45.899Z,1001.86
2017-05-27T02:02:55.935Z,1001.89
2017-05-27T02:04:06.280Z,1001.87
2017-05-27T02:05:16.628Z,1001.86
2017-05-27T02:06:26.984Z,1001.86
2017-05-27T02:07:37.022Z,1001.82
2017-05-27T02:08:47.429Z,1001.83
2017-05-27T02:09:57.811Z,1001.86
2017-05-27T02:11:07.866Z,1001.88
2017-05-27T02:12:18.213Z,1001.88
2017-05-27T02:13:28.637Z,1001.85
2017-05-27T02:14:38.990Z,1001.87
2017-05-27T02:15:49.041Z,1001.9
2017-05-27T02:16:59.396Z,1001.87
2017-05-27T02:18:09.422Z,1001.92
2017-05-27T02:19:19.475Z,1001.93
2017-05-27T02:20:29.595Z,1001.92
2017-05-27T02:21:39.946Z,1001.94
2017-05-27T02:22:50.288Z,1001.95
2017-05-27T02:24:00.640Z,1001.96
2017-05-27T02:25:10.674Z,1001.9
2017-05-27T02:26:21.015Z,1001.97
2017-05-27T02:27:30.736Z,1001.95
2017-05-27T02:28:41.079Z,1001.98
2017-05-27T02:29:51.438Z,1001.98
2017-05-27T02:31:01.172Z,1001.99
2017-05-27T02:32:11.264Z,1001.98
2017-05-27T02:33:21.625Z,1002.02
2017-05-27T02:34:31.981Z,1002
2017-05-27T02:35:42.337Z,1002.02
2017-05-27T02:36:52.695Z,1001.99
2017-05-27T02:38:03.034Z,1002
2017-05-27T02:39:12.748Z,1002.01
2017-05-27T02:40:22.784Z,1002.02
2017-05-27T02:41:32.818Z,1001.98
2017-05-27T02:42:42.864Z,1002.01
2017-05-27T02:43:53.215Z,1001.99
2017-05-27T02:45:03.570Z,1002.04
2017-05-27T02:46:13.974Z,1001.99
2017-05-27T02:47:24.312Z,1002.01
2017-05-27T02:48:34.659Z,1002.02
2017-05-27T02:49:44.740Z,1001.98
2017-05-27T02:50:55.076Z,1002.06
2017-05-27T02:52:05.131Z,1002.02
2017-05-27T02:53:15.482Z,1002.07
2017-05-27T02:54:25.502Z,1002.09
2017-05-27T02:55:35.296Z,1002.08
2017-05-27T02:56:45.014Z,1002.06
2017-05-27T02:57:55.348Z,1002.06
2017-05-27T02:59:05.710Z,1002.04
2017-05-27T03:00:16.069Z,1002.06
2017-05-27T03:01:26.719Z,1002.09
2017-05-27T03:32:55.220Z,1002.26
2017-05-27T03:34:05.557Z,1002.26
2017-05-27T03:35:15.597Z,1002.26
2017-05-27T03:36:25.940Z,1002.3
2017-05-27T03:37:36.283Z,1002.29
2017-05-27T03:38:46.681Z,1002.3
2017-05-27T03:39:56.712Z,1002.33
2017-05-27T03:41:07.049Z,1002.33
2017-05-27T03:42:17.395Z,1002.33
2017-05-27T03:43:27.743Z,1002.34
2017-05-27T03:44:38.133Z,1002.32
2017-05-27T03:45:48.169Z,1002.36
2017-05-27T03:46:57.585Z,1002.36
2017-05-27T03:48:07.930Z,1002.36
2017-05-27T03:49:18.291Z,1002.38
2017-05-27T03:50:28.702Z,1002.41
2017-05-27T03:51:38.445Z,1002.42
2017-05-27T03:52:48.801Z,1002.41
2017-05-27T03:53:59.149Z,1002.42
2017-05-27T03:55:09.494Z,1002.45
2017-05-27T03:56:19.894Z,1002.46
2017-05-27T03:57:29.649Z,1002.47
2017-05-27T03:58:40.018Z,1002.46
2017-05-27T03:59:50.365Z,1002.46
2017-05-27T04:01:00.722Z,1002.46
2017-05-27T04:02:10.804Z,1002.48
2017-05-27T04:03:20.528Z,1002.44
2017-05-27T04:04:30.878Z,1002.47
2017-05-27T04:05:41.240Z,1002.49
2017-05-27T04:06:51.594Z,1002.47
2017-05-27T04:08:01.693Z,1002.48
2017-05-27T04:09:12.039Z,1002.5
2017-05-27T04:10:22.375Z,1002.52
2017-05-27T04:11:32.712Z,1002.5
2017-05-27T04:12:43.053Z,1002.49
2017-05-27T04:13:53.403Z,1002.56
2017-05-27T04:15:03.128Z,1002.53
2017-05-27T04:16:13.491Z,1002.58
2017-05-27T04:17:23.830Z,1002.57
2017-05-27T04:18:34.172Z,1002.8
2017-05-27T04:19:44.553Z,1003.22
2017-05-27T04:20:54.921Z,1003.48
2017-05-27T04:22:05.280Z,1003.46
2017-05-27T04:23:15.312Z,1003.3
2017-05-27T04:24:25.713Z,1003.27
2017-05-27T04:25:35.753Z,1003.39
2017-05-27T04:26:46.095Z,1003.41
2017-05-27T04:27:56.437Z,1003.33
2017-05-27T04:29:06.485Z,1003.39
2017-05-27T04:30:16.520Z,1003.33
2017-05-27T04:31:26.864Z,1003.18
2017-05-27T04:32:36.905Z,1003.14
2017-05-27T04:33:47.284Z,1003.18
2017-05-27T04:34:57.327Z,1003.12
2017-05-27T04:36:07.679Z,1003.09
2017-05-27T04:37:18.038Z,1003.08
2017-05-27T04:38:28.086Z,1003.06
2017-05-27T04:39:38.172Z,1003.05
2017-05-27T04:40:48.519Z,1003.06
2017-05-27T04:41:58.554Z,1003.07
2017-05-27T04:43:08.280Z,1003.07
2017-05-27T04:44:18.646Z,1003.09
2017-05-27T04:45:29.054Z,1003.15
2017-05-27T04:46:39.400Z,1003.17
2017-05-27T04:47:49.128Z,1003.11
2017-05-27T04:48:59.175Z,1003.14
2017-05-27T04:50:09.531Z,1003.13
2017-05-27T04:51:19.948Z,1003.13
2017-05-27T04:52:30.305Z,1003.19
2017-05-27T04:53:40.368Z,1003.22
2017-05-27T04:54:50.737Z,1003.25
2017-05-27T04:56:01.088Z,1003.33
2017-05-27T04:57:11.194Z,1003.34
2017-05-27T04:58:21.450Z,1003.38
2017-05-27T04:59:31.495Z,1003.38
2017-05-27T05:00:41.859Z,1003.35
2017-05-27T05:01:51.900Z,1003.28
2017-05-27T05:03:01.945Z,1003.25
2017-05-27T05:04:12.298Z,1003.17
2017-05-27T05:05:22.660Z,1003.1
2017-05-27T05:06:33.005Z,1003.03
2017-05-27T05:07:43.372Z,1003.03
2017-05-27T05:08:53.836Z,1003.05
2017-05-27T05:10:04.201Z,1003.02
2017-05-27T05:11:14.564Z,1003.03
2017-05-27T05:12:24.922Z,1003
2017-05-27T05:13:34.983Z,1003.06
2017-05-27T05:14:45.407Z,1003
2017-05-27T05:15:55.766Z,1003.06
2017-05-27T05:17:05.726Z,1003.09
2017-05-27T05:18:16.080Z,1003.15
2017-05-27T05:19:26.128Z,1003.23
2017-05-27T05:20:36.533Z,1003.19
2017-05-27T05:21:46.892Z,1003.23
2017-05-27T05:22:57.242Z,1003.29
2017-05-27T05:24:07.607Z,1003.34
2017-05-27T05:25:17.715Z,1003.35
2017-05-27T05:26:27.817Z,1003.37
2017-05-27T05:27:37.862Z,1003.36
2017-05-27T05:28:48.228Z,1003.38
2017-05-27T05:29:58.587Z,1003.41
2017-05-27T05:31:08.948Z,1003.41
2017-05-27T05:32:19.292Z,1003.42
2017-05-27T05:33:29.654Z,1003.43
2017-05-27T05:34:40.009Z,1003.47
2017-05-27T05:35:50.353Z,1003.49
2017-05-27T05:37:00.713Z,1003.45
2017-05-27T05:38:11.110Z,1003.46
2017-05-27T05:39:21.157Z,1003.48
2017-05-27T05:40:31.283Z,1003.45
2017-05-27T05:41:41.696Z,1003.5
2017-05-27T05:42:52.059Z,1003.53
2017-05-27T05:44:02.464Z,1003.5
2017-05-27T05:45:12.817Z,1003.49
2017-05-27T05:46:23.181Z,1003.52
2017-05-27T05:47:33.219Z,1003.46
2017-05-27T05:48:43.262Z,1003.52
2017-05-27T05:49:53.667Z,1003.53
2017-05-27T05:51:04.027Z,1003.56
2017-05-27T05:52:14.072Z,1003.57
2017-05-27T05:53:24.418Z,1003.6
2017-05-27T05:54:34.767Z,1003.63
2017-05-27T05:55:44.821Z,1003.65
2017-05-27T05:56:54.867Z,1003.63
2017-05-27T05:58:05.223Z,1003.57
2017-05-27T05:59:15.284Z,1003.58
2017-05-27T06:00:25.668Z,1003.59
2017-05-27T06:01:36.022Z,1003.61
2017-05-27T06:02:46.391Z,1003.58
2017-05-27T06:03:56.763Z,1003.59
2017-05-27T06:05:06.500Z,1003.6
2017-05-27T06:06:16.866Z,1003.65
2017-05-27T06:07:27.275Z,1003.63
2017-05-27T06:08:37.695Z,1003.6
2017-05-27T06:09:47.748Z,1003.7
2017-05-27T06:10:57.785Z,1004.22
2017-05-27T06:12:07.836Z,1004.27
2017-05-27T06:13:18.200Z,1003.8
2017-05-27T06:14:28.549Z,1003.41
2017-05-27T06:15:38.937Z,1003.4
2017-05-27T06:16:48.967Z,1003.45
2017-05-27T06:17:59.020Z,1003.43
2017-05-27T06:19:09.421Z,1003.42
2017-05-27T06:20:19.458Z,1003.41
2017-05-27T06:21:29.820Z,1003.45
2017-05-27T06:22:40.163Z,1003.54
2017-05-27T06:23:50.213Z,1003.62
2017-05-27T06:25:00.612Z,1003.75
2017-05-27T06:26:10.973Z,1003.8
2017-05-27T06:27:21.011Z,1003.83
2017-05-27T06:28:31.040Z,1003.81
2017-05-27T06:29:41.652Z,1003.79
2017-05-27T06:30:51.686Z,1003.77
2017-05-27T06:32:01.731Z,1003.75
2017-05-27T06:33:11.778Z,1003.76
2017-05-27T06:34:22.136Z,1003.74
2017-05-27T06:35:32.181Z,1003.73
2017-05-27T06:36:42.532Z,1003.74
2017-05-27T06:37:52.881Z,1003.72
2017-05-27T06:39:03.241Z,1003.73
2017-05-27T06:40:13.599Z,1003.71
2017-05-27T06:41:23.956Z,1003.72
2017-05-27T06:42:34.324Z,1003.69
2017-05-27T06:43:44.377Z,1003.63
2017-05-27T06:44:54.747Z,1003.64
2017-05-27T06:46:04.794Z,1003.65
2017-05-27T06:47:15.140Z,1003.65
2017-05-27T06:48:25.510Z,1003.68
2017-05-27T06:49:35.879Z,1003.64
2017-05-27T06:50:45.928Z,1003.6
2017-05-27T06:51:56.280Z,1003.65
2017-05-27T06:53:06.318Z,1003.63
2017-05-27T06:54:16.104Z,1003.6
2017-05-27T06:55:26.147Z,1003.61
2017-05-27T06:56:36.202Z,1003.66
2017-05-27T06:57:46.290Z,1003.65
2017-05-27T06:58:56.339Z,1003.6
2017-05-27T07:00:06.693Z,1003.56
2017-05-27T07:01:17.053Z,1003.6
2017-05-27T07:02:27.409Z,1003.56
2017-05-27T07:03:36.822Z,1003.53
2017-05-27T07:04:47.198Z,1003.55
2017-05-27T07:05:57.312Z,1003.54
2017-05-27T07:07:07.045Z,1003.56
2017-05-27T07:08:17.399Z,1003.55
2017-05-27T07:09:27.746Z,1003.51
2017-05-27T07:10:38.097Z,1003.57
2017-05-27T07:11:48.492Z,1003.53
2017-05-27T07:12:58.870Z,1003.57
2017-05-27T07:14:09.224Z,1003.58
2017-05-27T07:15:19.594Z,1003.63
2017-05-27T07:16:29.949Z,1003.61
2017-05-27T07:17:40.361Z,1003.59
2017-05-27T07:18:50.111Z,1003.63
2017-05-27T07:20:00.468Z,1003.66
2017-05-27T07:21:10.511Z,1003.62
2017-05-27T07:22:20.851Z,1003.66
2017-05-27T07:23:31.261Z,1003.7
2017-05-27T07:24:41.620Z,1003.68
2017-05-27T07:25:52.038Z,1003.71
2017-05-27T07:27:02.401Z,1003.73
2017-05-27T07:28:12.141Z,1003.66
2017-05-27T07:29:22.559Z,1003.66
2017-05-27T07:30:32.911Z,1003.69
2017-05-27T07:31:42.967Z,1003.69
2017-05-27T07:32:53.448Z,1003.7
2017-05-27T07:34:03.805Z,1003.71
2017-05-27T07:35:14.207Z,1003.71
2017-05-27T07:36:24.576Z,1003.71
2017-05-27T07:37:34.933Z,1003.71
2017-05-27T07:38:45.278Z,1003.72
2017-05-27T07:39:55.643Z,1003.69
2017-05-27T07:41:06.074Z,1003.72
2017-05-27T07:42:16.428Z,1003.72
2017-05-27T07:43:26.465Z,1003.72
2017-05-27T07:44:36.536Z,1003.69
2017-05-27T07:45:46.902Z,1003.69
2017-05-27T07:46:57.005Z,1003.71
2017-05-27T07:48:07.366Z,1003.74
2017-05-27T07:49:17.706Z,1003.78
2017-05-27T07:50:28.085Z,1003.76
2017-05-27T07:51:37.813Z,1003.8
2017-05-27T07:52:47.860Z,1003.83
2017-05-27T07:53:57.938Z,1003.82
2017-05-27T07:55:08.313Z,1003.81
2017-05-27T07:56:18.854Z,1003.87
2017-05-27T07:57:29.215Z,1003.85
2017-05-27T07:58:39.293Z,1003.84
2017-05-27T07:59:49.015Z,1003.82
2017-05-27T08:00:59.370Z,1003.82
2017-05-27T08:02:09.104Z,1003.84
2017-05-27T08:03:19.150Z,1003.84
2017-05-27T08:04:29.561Z,1003.86
2017-05-27T08:05:39.908Z,1003.8
2017-05-27T08:06:50.294Z,1003.84
2017-05-27T08:08:00.684Z,1003.88
2017-05-27T08:09:10.743Z,1003.79
2017-05-27T08:10:21.102Z,1003.8
2017-05-27T08:11:31.154Z,1003.83
2017-05-27T08:12:41.499Z,1003.84
2017-05-27T08:13:51.527Z,1003.78
2017-05-27T08:15:01.638Z,1003.8
2017-05-27T08:16:11.431Z,1003.8
2017-05-27T08:17:21.469Z,1003.8
2017-05-27T08:18:31.510Z,1003.83
2017-05-27T08:19:41.873Z,1003.85
2017-05-27T08:20:51.928Z,1003.82
2017-05-27T08:22:02.295Z,1003.87
2017-05-27T08:23:12.349Z,1003.85
2017-05-27T08:24:22.079Z,1003.88
2017-05-27T08:25:32.455Z,1003.89
2017-05-27T08:26:42.811Z,1003.84
2017-05-27T08:27:52.881Z,1003.85
2017-05-27T08:29:02.609Z,1003.88
2017-05-27T08:30:12.669Z,1003.91
2017-05-27T08:31:23.042Z,1003.88
2017-05-27T08:32:33.391Z,1003.91
2017-05-27T08:33:43.789Z,1003.9
2017-05-27T08:34:53.848Z,1003.9
2017-05-27T08:36:04.211Z,1003.89
2017-05-27T08:37:14.566Z,1003.89
2017-05-27T08:38:24.921Z,1003.93
2017-05-27T08:39:35.338Z,1003.94
2017-05-27T08:40:45.705Z,1003.87
2017-05-27T08:41:55.759Z,1003.91
2017-05-27T08:43:06.119Z,1003.88
2017-05-27T08:44:16.476Z,1003.92
2017-05-27T08:45:26.526Z,1003.94
2017-05-27T08:46:36.262Z,1003.88
2017-05-27T08:47:46.620Z,1003.89
2017-05-27T08:48:57.054Z,1003.88
2017-05-27T08:50:07.419Z,1003.88
2017-05-27T08:51:17.217Z,1003.9
2017-05-27T08:52:27.262Z,1003.87
2017-05-27T08:53:37.617Z,1003.89
2017-05-27T08:54:47.976Z,1003.84
2017-05-27T08:55:57.701Z,1003.83
2017-05-27T08:57:08.124Z,1003.81
2017-05-27T08:58:18.485Z,1003.84
2017-05-27T08:59:28.848Z,1003.82
2017-05-27T09:00:38.889Z,1003.84
2017-05-27T09:01:48.925Z,1003.83
2017-05-27T09:02:59.322Z,1003.87
2017-05-27T09:04:09.700Z,1003.91
2017-05-27T09:05:19.439Z,1003.92
2017-05-27T09:06:29.795Z,1003.9
2017-05-27T09:07:40.162Z,1003.77
2017-05-27T09:08:50.579Z,1003.83
2017-05-27T09:10:00.943Z,1003.89
2017-05-27T09:11:11.306Z,1003.91
2017-05-27T09:12:21.665Z,1003.85
2017-05-27T09:13:32.043Z,1003.92
2017-05-27T09:14:42.171Z,1003.99
2017-05-27T09:15:52.548Z,1003.96
2017-05-27T09:17:02.914Z,1003.92
2017-05-27T09:18:13.281Z,1003.96
2017-05-27T09:19:23.322Z,1003.99
2017-05-27T09:20:33.428Z,1004
2017-05-27T09:21:43.477Z,1004.04
2017-05-27T09:22:53.833Z,1003.97
2017-05-27T09:24:04.236Z,1004
2017-05-27T09:25:14.602Z,1003.99
2017-05-27T09:26:24.091Z,1003.99
2017-05-27T09:27:34.156Z,1004
2017-05-27T09:28:44.191Z,1003.98
2017-05-27T09:29:54.554Z,1003.92
2017-05-27T09:31:04.910Z,1003.94
2017-05-27T09:32:14.707Z,1003.95
2017-05-27T09:33:25.059Z,1003.95
2017-05-27T09:34:35.407Z,1003.94
2017-05-27T09:35:45.765Z,1003.92
2017-05-27T09:36:56.117Z,1003.9
2017-05-27T09:38:06.479Z,1003.96
2017-05-27T09:39:16.549Z,1003.85
2017-05-27T09:40:26.918Z,1003.86
2017-05-27T09:41:36.989Z,1003.88
2017-05-27T09:42:47.367Z,1003.8
2017-05-27T09:43:57.721Z,1003.89
2017-05-27T09:45:07.771Z,1003.86
2017-05-27T09:46:18.139Z,1003.89
2017-05-27T09:47:28.498Z,1003.84
2017-05-27T09:48:38.848Z,1003.87
2017-05-27T09:49:49.267Z,1003.83
2017-05-27T09:50:59.669Z,1003.79
2017-05-27T09:52:09.713Z,1003.86
2017-05-27T09:53:20.063Z,1003.82
2017-05-27T09:54:30.424Z,1003.82
2017-05-27T09:55:40.517Z,1003.83
2017-05-27T09:56:50.551Z,1003.79
2017-05-27T09:58:00.929Z,1003.82
2017-05-27T09:59:10.977Z,1003.83
2017-05-27T10:00:21.533Z,1003.81
2017-05-27T10:01:30.960Z,1003.83
2017-05-27T10:02:40.758Z,1003.84
2017-05-27T10:03:50.833Z,1003.91
2017-05-27T10:05:01.226Z,1003.81
2017-05-27T10:06:11.265Z,1003.85
2017-05-27T10:07:21.730Z,1003.84
2017-05-27T10:08:32.091Z,1003.78
2017-05-27T10:09:42.158Z,1003.78
2017-05-27T10:10:52.532Z,1003.77
2017-05-27T10:12:02.582Z,1003.74
2017-05-27T10:13:12.947Z,1003.73
2017-05-27T10:14:22.996Z,1003.69
2017-05-27T10:15:32.756Z,1003.69
2017-05-27T10:16:42.823Z,1003.71
2017-05-27T10:17:53.165Z,1003.75
2017-05-27T10:19:03.621Z,1003.73
2017-05-27T10:20:13.981Z,1003.83
2017-05-27T10:21:24.327Z,1003.82
2017-05-27T10:22:34.378Z,1003.85
2017-05-27T10:23:44.416Z,1003.82
2017-05-27T10:24:54.830Z,1003.8
2017-05-27T10:26:05.189Z,1003.77
2017-05-27T10:27:15.233Z,1003.76
2017-05-27T10:28:25.627Z,1003.76
2017-05-27T10:29:35.999Z,1003.72
2017-05-27T10:30:46.374Z,1003.76
2017-05-27T10:31:56.722Z,1003.74
2017-05-27T10:33:07.094Z,1003.67
2017-05-27T10:34:17.460Z,1003.6
2017-05-27T10:35:27.818Z,1003.7
2017-05-27T10:36:37.909Z,1003.7
2017-05-27T10:37:48.271Z,1003.71
2017-05-27T10:38:58.330Z,1003.65
2017-05-27T10:40:08.694Z,1003.63
2017-05-27T10:41:19.048Z,1003.62
2017-05-27T10:42:29.149Z,1003.71
2017-05-27T10:43:39.501Z,1003.67
2017-05-27T10:44:49.859Z,1003.7
2017-05-27T10:46:00.203Z,1003.62
2017-05-27T10:47:09.943Z,1003.71
2017-05-27T10:48:20.035Z,1003.7
2017-05-27T10:49:30.087Z,1003.7
2017-05-27T10:50:40.472Z,1003.69
2017-05-27T10:51:50.530Z,1003.63
2017-05-27T10:53:00.597Z,1003.62
2017-05-27T10:54:11.023Z,1003.63
2017-05-27T10:55:21.395Z,1003.56
2017-05-27T10:56:31.757Z,1003.6
2017-05-27T10:57:42.118Z,1003.6
2017-05-27T10:58:52.487Z,1003.57
2017-05-27T11:00:02.846Z,1003.53
2017-05-27T11:01:12.897Z,1003.58
2017-05-27T11:02:23.248Z,1003.6
2017-05-27T11:03:33.323Z,1003.61
2017-05-27T11:04:43.359Z,1003.63
2017-05-27T11:05:53.447Z,1003.62
2017-05-27T11:07:03.498Z,1003.62
2017-05-27T11:08:13.846Z,1003.55
2017-05-27T11:09:23.882Z,1003.41
2017-05-27T11:10:33.934Z,1003.54
2017-05-27T11:11:44.318Z,1003.44
2017-05-27T11:12:54.061Z,1003.48
2017-05-27T11:14:04.425Z,1003.55
2017-05-27T11:15:14.471Z,1003.5
2017-05-27T11:16:24.833Z,1003.54
2017-05-27T11:17:35.230Z,1003.59
2017-05-27T11:18:45.595Z,1003.53
2017-05-27T11:19:56.027Z,1003.54
2017-05-27T11:21:06.381Z,1003.49
2017-05-27T11:22:16.431Z,1003.49
2017-05-27T11:23:26.831Z,1003.51
2017-05-27T11:24:37.208Z,1003.52
2017-05-27T11:25:47.560Z,1003.51
2017-05-27T11:26:57.604Z,1003.54
2017-05-27T11:28:07.965Z,1003.52
2017-05-27T11:29:18.329Z,1003.56
2017-05-27T11:30:28.688Z,1003.58
2017-05-27T11:31:39.059Z,1003.57
2017-05-27T11:32:49.429Z,1003.58
2017-05-27T11:33:59.793Z,1003.48
2017-05-27T11:35:10.197Z,1003.4
2017-05-27T11:36:20.543Z,1003.48
2017-05-27T11:37:30.908Z,1003.48
2017-05-27T11:38:41.280Z,1003.45
2017-05-27T11:39:51.566Z,1003.45
2017-05-27T11:41:01.984Z,1003.4
2017-05-27T11:42:12.354Z,1003.36
2017-05-27T11:43:22.728Z,1003.37
2017-05-27T11:44:33.134Z,1003.43
2017-05-27T11:45:43.495Z,1003.42
2017-05-27T11:46:53.281Z,1003.41
2017-05-27T11:48:03.643Z,1003.56
2017-05-27T11:49:13.357Z,1003.55
2017-05-27T11:50:23.717Z,1003.53
2017-05-27T11:51:34.278Z,1003.53
2017-05-27T11:52:44.366Z,1003.47
2017-05-27T11:53:54.734Z,1003.5
2017-05-27T11:55:05.104Z,1003.35
2017-05-27T11:56:15.468Z,1003.37
2017-05-27T11:57:25.524Z,1003.36
2017-05-27T11:58:35.889Z,1003.44
2017-05-27T11:59:46.270Z,1003.42
2017-05-27T12:00:56.634Z,1003.42
2017-05-27T12:02:06.694Z,1003.49
2017-05-27T12:03:17.065Z,1003.44
2017-05-27T12:04:27.165Z,1003.53
2017-05-27T12:05:37.533Z,1003.51
2017-05-27T12:06:47.575Z,1003.47
2017-05-27T12:07:57.967Z,1003.46
2017-05-27T12:09:08.341Z,1003.46
2017-05-27T12:10:18.687Z,1003.45
2017-05-27T12:11:29.060Z,1003.42
2017-05-27T12:12:39.425Z,1003.44
2017-05-27T12:13:49.470Z,1003.42
2017-05-27T12:14:59.823Z,1003.39
2017-05-27T12:16:10.197Z,1003.47
2017-05-27T12:17:20.246Z,1003.5
2017-05-27T12:18:30.608Z,1003.45
2017-05-27T12:19:40.349Z,1003.53
2017-05-27T12:20:50.718Z,1003.46
2017-05-27T12:22:00.821Z,1003.5
2017-05-27T12:23:11.181Z,1003.47
2017-05-27T12:24:21.256Z,1003.42
2017-05-27T12:25:31.623Z,1003.4
2017-05-27T12:26:41.996Z,1003.38
2017-05-27T12:27:52.371Z,1003.36
2017-05-27T12:29:02.741Z,1003.39
2017-05-27T12:30:13.099Z,1003.37
2017-05-27T12:31:23.460Z,1003.33
2017-05-27T12:32:33.523Z,1003.38
2017-05-27T12:33:43.872Z,1003.38
2017-05-27T12:34:54.311Z,1003.37
2017-05-27T12:36:04.353Z,1003.33
2017-05-27T12:37:14.714Z,1003.31
2017-05-27T12:38:24.762Z,1003.36
2017-05-27T12:39:35.113Z,1003.35
2017-05-27T12:40:45.467Z,1003.31
2017-05-27T12:41:55.827Z,1003.27
2017-05-27T12:43:05.872Z,1003.27
2017-05-27T12:44:16.227Z,1003.3
2017-05-27T12:45:26.589Z,1003.24
2017-05-27T12:46:36.933Z,1003.2
2017-05-27T12:47:47.280Z,1003.2
2017-05-27T12:48:57.326Z,1003.2
2017-05-27T12:50:07.690Z,1003.2
2017-05-27T12:51:17.747Z,1003.15
2017-05-27T12:52:28.166Z,1003.15
2017-05-27T12:53:38.234Z,1003.16
2017-05-27T12:54:48.577Z,1003.12
2017-05-27T12:55:58.942Z,1003.21
2017-05-27T12:57:08.664Z,1003.2
2017-05-27T12:58:19.088Z,1003.15
2017-05-27T12:59:29.468Z,1003.1
2017-05-27T13:00:39.526Z,1003.08
2017-05-27T13:01:49.892Z,1003.08
2017-05-27T13:03:00.242Z,1003.07
2017-05-27T13:04:10.647Z,1003.09
2017-05-27T13:05:20.712Z,1002.99
2017-05-27T13:06:30.756Z,1003.01
2017-05-27T13:07:40.810Z,1003.02
2017-05-27T13:08:50.844Z,1003.02
2017-05-27T13:10:01.245Z,1003.03
2017-05-27T13:11:11.610Z,1003.02
2017-05-27T13:12:21.672Z,1003.05
2017-05-27T13:13:32.064Z,1002.96
2017-05-27T13:14:42.421Z,1002.95
2017-05-27T13:15:52.839Z,1003.02
2017-05-27T13:17:03.208Z,1003.02
2017-05-27T13:18:13.568Z,1003.02
2017-05-27T13:19:23.923Z,1003
2017-05-27T13:20:33.982Z,1002.99
2017-05-27T13:21:44.401Z,1002.99
2017-05-27T13:22:54.444Z,1003
2017-05-27T13:24:04.827Z,1002.95
2017-05-27T13:25:14.881Z,1003
2017-05-27T13:26:25.238Z,1002.97
2017-05-27T13:27:35.325Z,1003
2017-05-27T13:28:45.681Z,1002.99
2017-05-27T13:29:56.052Z,1003.03
2017-05-27T13:31:06.103Z,1003.02
2017-05-27T13:32:16.469Z,1003.03
2017-05-27T13:33:26.251Z,1003.01
2017-05-27T13:34:36.606Z,1002.98
2017-05-27T13:35:46.665Z,1002.96
2017-05-27T13:36:56.710Z,1003.01
2017-05-27T13:38:07.149Z,1002.96
2017-05-27T13:39:17.247Z,1002.9
2017-05-27T13:40:27.606Z,1002.89
2017-05-27T13:41:37.669Z,1002.92
2017-05-27T13:42:47.437Z,1002.85
2017-05-27T13:43:57.484Z,1002.91
2017-05-27T13:45:07.588Z,1002.88
2017-05-27T13:46:17.962Z,1002.86
2017-05-27T13:47:28.334Z,1002.82
2017-05-27T13:48:38.704Z,1002.9
2017-05-27T13:49:49.054Z,1002.87
2017-05-27T13:50:59.433Z,1002.83
2017-05-27T13:52:09.798Z,1002.81
2017-05-27T13:53:20.273Z,1002.81
2017-05-27T13:54:30.696Z,1002.8
2017-05-27T13:55:40.764Z,1002.79
2017-05-27T13:56:51.128Z,1002.82
2017-05-27T13:58:01.188Z,1002.81
2017-05-27T13:59:10.916Z,1002.84
2017-05-27T14:00:21.035Z,1002.81
2017-05-27T14:01:31.387Z,1002.86
2017-05-27T14:02:41.760Z,1002.85
2017-05-27T14:03:52.109Z,1002.89
2017-05-27T14:05:02.161Z,1002.84
2017-05-27T14:06:12.510Z,1002.82
2017-05-27T14:07:22.563Z,1002.82
2017-05-27T14:08:32.297Z,1002.77
2017-05-27T14:09:42.667Z,1002.74
2017-05-27T14:10:52.717Z,1002.75
2017-05-27T14:12:02.775Z,1002.85
2017-05-27T14:13:12.522Z,1002.8
2017-05-27T14:14:22.886Z,1002.8
2017-05-27T14:15:33.247Z,1002.81
2017-05-27T14:16:43.610Z,1002.77
2017-05-27T14:17:53.988Z,1002.77
2017-05-27T14:19:04.411Z,1002.75
2017-05-27T14:20:14.473Z,1002.77
2017-05-27T14:21:25.074Z,1002.85
2017-05-27T14:22:35.105Z,1002.77
2017-05-27T14:23:45.143Z,1002.8
2017-05-27T14:24:55.559Z,1002.82
2017-05-27T14:26:05.916Z,1002.81
2017-05-27T14:27:16.298Z,1002.78
2017-05-27T14:28:26.644Z,1002.81
2017-05-27T14:29:36.699Z,1002.8
2017-05-27T14:30:47.078Z,1002.73
2017-05-27T14:31:57.436Z,1002.74
2017-05-27T14:33:07.806Z,1002.79
2017-05-27T14:34:18.185Z,1002.75
2017-05-27T14:35:28.221Z,1002.77
2017-05-27T14:36:38.639Z,1002.73
2017-05-27T14:37:49.003Z,1002.8
2017-05-27T14:38:59.374Z,1002.78
2017-05-27T14:40:09.728Z,1002.74
2017-05-27T14:41:20.102Z,1002.73
2017-05-27T14:42:30.535Z,1002.69
2017-05-27T14:43:40.881Z,1002.73